KDRM

Drummond Island Airport

Drummond Island, Michigan, USA
METAR KDRM 190655Z AUTO 00000KT 10SM OVC026 M01/M03 A2975 RMK AO2 T10071026
Observed Flight Rules
Jan-19 @ 06:55 UTC (30 minutes ago) Marginal Visual Flight Rules
Wind Visibility Clouds
Calm 10 miles
  • Overcast at 2,600' AGL
Temperatures Readings
Current -1°C / 30°F
Dewpoint -3°C / 27°F
Humidity 86%
Altimeter 29.75" Hg
Pressure 1007 hPa
Elevation 204
METAR KDRM 190655Z AUTO 00000KT 10SM OVC026 M01/M03 A2975 RMK AO2 T10071026
Observed Flight Rules
Jan-19 @ 06:55 UTC
(30 minutes ago)
MVFR
Wind Visibility
Calm 10 miles
Clouds
  • Overcast at 2,600' AGL
Temperature Dewpoint
-1°C / 30°F -3°C / 27°F
Humidity Altimeter Pressure
86% 29.75" Hg 1007 hPa